sensor_id;sensor_type;location;lat;lon;timestamp;pressure;altitude;pressure_sealevel;temperature;humidity
21011;BME280;10663;42.714;23.274;2022-08-19T00:00:20;94542.47;;;21.45;58.63
21011;BME280;10663;42.714;23.274;2022-08-19T00:01:53;94537.53;;;21.47;59.91
21011;BME280;10663;42.714;23.274;2022-08-19T00:03:24;94536.06;;;21.37;60.84
21011;BME280;10663;42.714;23.274;2022-08-19T00:04:55;94535.84;;;21.30;60.24
21011;BME280;10663;42.714;23.274;2022-08-19T00:06:27;94540.00;;;21.27;60.61
21011;BME280;10663;42.714;23.274;2022-08-19T00:07:58;94543.47;;;21.28;60.11
21011;BME280;10663;42.714;23.274;2022-08-19T00:09:29;94541.09;;;21.26;60.55
21011;BME280;10663;42.714;23.274;2022-08-19T00:11:00;94542.34;;;21.29;59.90
21011;BME280;10663;42.714;23.274;2022-08-19T00:12:31;94547.50;;;21.34;59.61
21011;BME280;10663;42.714;23.274;2022-08-19T00:14:03;94540.00;;;21.27;59.66
21011;BME280;10663;42.714;23.274;2022-08-19T00:15:35;94547.03;;;21.32;59.79
21011;BME280;10663;42.714;23.274;2022-08-19T00:17:06;94547.50;;;21.34;59.69
21011;BME280;10663;42.714;23.274;2022-08-19T00:18:37;94556.69;;;21.33;60.25
21011;BME280;10663;42.714;23.274;2022-08-19T00:20:10;94559.41;;;21.33;59.65
21011;BME280;10663;42.714;23.274;2022-08-19T00:21:42;94552.56;;;21.36;59.52
21011;BME280;10663;42.714;23.274;2022-08-19T00:23:13;94548.16;;;21.31;59.81
21011;BME280;10663;42.714;23.274;2022-08-19T00:24:45;94555.47;;;21.31;59.75
21011;BME280;10663;42.714;23.274;2022-08-19T00:26:16;94550.97;;;21.35;59.24
21011;BME280;10663;42.714;23.274;2022-08-19T00:27:47;94559.97;;;21.39;59.54
21011;BME280;10663;42.714;23.274;2022-08-19T00:29:19;94562.22;;;21.37;59.64
21011;BME280;10663;42.714;23.274;2022-08-19T00:30:50;94552.34;;;21.28;60.27
21011;BME280;10663;42.714;23.274;2022-08-19T00:32:22;94549.84;;;21.23;60.64
21011;BME280;10663;42.714;23.274;2022-08-19T00:33:53;94549.50;;;21.25;61.31
21011;BME280;10663;42.714;23.274;2022-08-19T00:35:24;94543.56;;;21.19;61.10
21011;BME280;10663;42.714;23.274;2022-08-19T00:36:57;94554.19;;;21.16;61.45
21011;BME280;10663;42.714;23.274;2022-08-19T00:38:29;94545.66;;;21.14;61.54
21011;BME280;10663;42.714;23.274;2022-08-19T00:40:00;94537.56;;;21.14;61.51
21011;BME280;10663;42.714;23.274;2022-08-19T00:41:31;94536.44;;;21.15;61.58
21011;BME280;10663;42.714;23.274;2022-08-19T00:43:08;94540.16;;;21.10;61.69
21011;BME280;10663;42.714;23.274;2022-08-19T00:44:41;94540.25;;;21.14;61.74
21011;BME280;10663;42.714;23.274;2022-08-19T00:46:13;94539.38;;;21.10;61.87
21011;BME280;10663;42.714;23.274;2022-08-19T00:47:44;94540.38;;;21.05;62.10
21011;BME280;10663;42.714;23.274;2022-08-19T00:50:58;94543.84;;;21.06;61.93
21011;BME280;10663;42.714;23.274;2022-08-19T00:52:33;94537.56;;;21.02;62.31
21011;BME280;10663;42.714;23.274;2022-08-19T00:54:05;94539.34;;;20.98;63.09
21011;BME280;10663;42.714;23.274;2022-08-19T00:55:37;94533.97;;;20.98;62.65
21011;BME280;10663;42.714;23.274;2022-08-19T00:57:12;94533.41;;;20.92;63.04
21011;BME280;10663;42.714;23.274;2022-08-19T00:58:45;94537.06;;;20.87;63.30
21011;BME280;10663;42.714;23.274;2022-08-19T01:00:18;94541.31;;;20.76;63.85
21011;BME280;10663;42.714;23.274;2022-08-19T01:01:49;94543.97;;;20.64;62.56
21011;BME280;10663;42.714;23.274;2022-08-19T01:03:21;94538.00;;;20.59;62.86
21011;BME280;10663;42.714;23.274;2022-08-19T01:04:52;94541.88;;;20.49;62.60
21011;BME280;10663;42.714;23.274;2022-08-19T01:06:23;94544.78;;;20.44;62.22
21011;BME280;10663;42.714;23.274;2022-08-19T01:07:56;94546.56;;;20.40;63.83
21011;BME280;10663;42.714;23.274;2022-08-19T01:09:29;94540.28;;;20.36;64.45
21011;BME280;10663;42.714;23.274;2022-08-19T01:11:00;94538.22;;;20.33;65.31
21011;BME280;10663;42.714;23.274;2022-08-19T01:12:31;94545.47;;;20.32;65.92
21011;BME280;10663;42.714;23.274;2022-08-19T01:14:03;94533.38;;;20.26;65.97
21011;BME280;10663;42.714;23.274;2022-08-19T01:15:42;94550.53;;;20.34;65.81
21011;BME280;10663;42.714;23.274;2022-08-19T01:17:14;94537.09;;;20.34;66.19
21011;BME280;10663;42.714;23.274;2022-08-19T01:18:47;94540.31;;;20.27;66.00
21011;BME280;10663;42.714;23.274;2022-08-19T01:20:21;94547.06;;;20.12;66.49
21011;BME280;10663;42.714;23.274;2022-08-19T01:22:03;94542.44;;;20.01;66.58
21011;BME280;10663;42.714;23.274;2022-08-19T01:23:36;94540.97;;;20.03;66.79
21011;BME280;10663;42.714;23.274;2022-08-19T01:25:19;94536.72;;;20.02;67.66
21011;BME280;10663;42.714;23.274;2022-08-19T01:26:50;94541.56;;;20.09;67.22
21011;BME280;10663;42.714;23.274;2022-08-19T01:28:25;94534.94;;;20.06;66.92
21011;BME280;10663;42.714;23.274;2022-08-19T01:29:57;94534.81;;;20.03;66.66
21011;BME280;10663;42.714;23.274;2022-08-19T01:31:29;94539.00;;;19.92;66.38
21011;BME280;10663;42.714;23.274;2022-08-19T01:33:03;94536.63;;;19.69;66.42
21011;BME280;10663;42.714;23.274;2022-08-19T01:34:36;94549.47;;;19.64;66.19
21011;BME280;10663;42.714;23.274;2022-08-19T01:36:13;94544.44;;;19.54;65.57
21011;BME280;10663;42.714;23.274;2022-08-19T01:37:45;94540.97;;;19.53;65.32
21011;BME280;10663;42.714;23.274;2022-08-19T01:39:21;94539.34;;;19.61;66.04
21011;BME280;10663;42.714;23.274;2022-08-19T01:40:52;94537.66;;;19.56;66.16
21011;BME280;10663;42.714;23.274;2022-08-19T01:42:23;94543.34;;;19.55;65.60
21011;BME280;10663;42.714;23.274;2022-08-19T01:43:54;94539.97;;;19.66;66.74
21011;BME280;10663;42.714;23.274;2022-08-19T01:45:27;94544.94;;;19.76;67.29
21011;BME280;10663;42.714;23.274;2022-08-19T01:46:58;94547.63;;;19.76;67.29
21011;BME280;10663;42.714;23.274;2022-08-19T01:48:38;94546.03;;;19.84;67.89
21011;BME280;10663;42.714;23.274;2022-08-19T01:50:11;94544.78;;;19.82;67.76
21011;BME280;10663;42.714;23.274;2022-08-19T01:51:42;94550.78;;;19.78;68.28
21011;BME280;10663;42.714;23.274;2022-08-19T01:53:13;94547.97;;;19.75;68.38
21011;BME280;10663;42.714;23.274;2022-08-19T01:54:44;94549.25;;;19.69;67.87
21011;BME280;10663;42.714;23.274;2022-08-19T01:56:15;94544.19;;;19.67;68.00
21011;BME280;10663;42.714;23.274;2022-08-19T01:57:50;94544.41;;;19.62;68.72
21011;BME280;10663;42.714;23.274;2022-08-19T01:59:23;94549.31;;;19.60;68.27
21011;BME280;10663;42.714;23.274;2022-08-19T02:00:54;94544.25;;;19.59;68.32
21011;BME280;10663;42.714;23.274;2022-08-19T02:02:25;94549.63;;;19.59;68.57
21011;BME280;10663;42.714;23.274;2022-08-19T02:03:56;94553.41;;;19.66;69.42
21011;BME280;10663;42.714;23.274;2022-08-19T02:05:27;94558.94;;;19.61;68.61
21011;BME280;10663;42.714;23.274;2022-08-19T02:06:59;94558.78;;;19.58;68.81
21011;BME280;10663;42.714;23.274;2022-08-19T02:08:32;94554.38;;;19.62;68.55
21011;BME280;10663;42.714;23.274;2022-08-19T02:10:11;94552.94;;;19.64;68.93
21011;BME280;10663;42.714;23.274;2022-08-19T02:11:43;94552.25;;;19.67;69.14
21011;BME280;10663;42.714;23.274;2022-08-19T02:13:14;94547.41;;;19.61;68.77
21011;BME280;10663;42.714;23.274;2022-08-19T02:14:44;94549.63;;;19.59;69.08
21011;BME280;10663;42.714;23.274;2022-08-19T02:16:18;94547.09;;;19.62;68.81
21011;BME280;10663;42.714;23.274;2022-08-19T02:17:49;94550.72;;;19.66;69.21
21011;BME280;10663;42.714;23.274;2022-08-19T02:19:19;94539.22;;;19.57;68.39
21011;BME280;10663;42.714;23.274;2022-08-19T02:20:51;94547.28;;;19.57;69.16
21011;BME280;10663;42.714;23.274;2022-08-19T02:22:22;94546.34;;;19.53;69.45
21011;BME280;10663;42.714;23.274;2022-08-19T02:23:53;94546.56;;;19.48;69.88
21011;BME280;10663;42.714;23.274;2022-08-19T02:25:24;94550.78;;;19.49;70.53
21011;BME280;10663;42.714;23.274;2022-08-19T02:26:55;94551.75;;;19.44;70.55
21011;BME280;10663;42.714;23.274;2022-08-19T02:28:26;94550.94;;;19.44;70.71
21011;BME280;10663;42.714;23.274;2022-08-19T02:29:57;94554.28;;;19.41;70.58
21011;BME280;10663;42.714;23.274;2022-08-19T02:31:27;94547.31;;;19.40;70.41
21011;BME280;10663;42.714;23.274;2022-08-19T02:32:58;94558.06;;;19.40;70.44
21011;BME280;10663;42.714;23.274;2022-08-19T02:34:29;94550.72;;;19.28;69.58
21011;BME280;10663;42.714;23.274;2022-08-19T02:36:04;94550.41;;;19.30;69.73
21011;BME280;10663;42.714;23.274;2022-08-19T02:37:35;94548.50;;;19.22;70.13
21011;BME280;10663;42.714;23.274;2022-08-19T02:39:24;94549.31;;;19.22;70.74
21011;BME280;10663;42.714;23.274;2022-08-19T02:40:58;94554.66;;;19.22;70.90
21011;BME280;10663;42.714;23.274;2022-08-19T02:42:29;94558.69;;;19.08;70.18
21011;BME280;10663;42.714;23.274;2022-08-19T02:44:02;94557.72;;;19.03;70.77
21011;BME280;10663;42.714;23.274;2022-08-19T02:45:36;94547.94;;;19.08;69.93
21011;BME280;10663;42.714;23.274;2022-08-19T02:47:09;94559.19;;;19.01;70.55
21011;BME280;10663;42.714;23.274;2022-08-19T02:48:40;94557.25;;;19.10;71.39
21011;BME280;10663;42.714;23.274;2022-08-19T02:50:11;94551.25;;;19.04;70.48
21011;BME280;10663;42.714;23.274;2022-08-19T02:51:45;94557.88;;;19.07;71.97
21011;BME280;10663;42.714;23.274;2022-08-19T02:53:16;94555.69;;;19.09;70.86
21011;BME280;10663;42.714;23.274;2022-08-19T02:54:46;94559.16;;;19.10;71.76
21011;BME280;10663;42.714;23.274;2022-08-19T02:56:18;94558.66;;;19.16;71.54
21011;BME280;10663;42.714;23.274;2022-08-19T02:57:49;94555.34;;;19.19;71.91
21011;BME280;10663;42.714;23.274;2022-08-19T02:59:20;94559.16;;;19.10;71.89
21011;BME280;10663;42.714;23.274;2022-08-19T03:00:53;94559.00;;;19.06;71.94
21011;BME280;10663;42.714;23.274;2022-08-19T03:02:24;94553.16;;;19.04;71.58
21011;BME280;10663;42.714;23.274;2022-08-19T03:03:56;94562.19;;;18.99;71.13
21011;BME280;10663;42.714;23.274;2022-08-19T03:05:27;94556.94;;;19.03;72.48
21011;BME280;10663;42.714;23.274;2022-08-19T03:06:58;94550.66;;;18.99;72.11
21011;BME280;10663;42.714;23.274;2022-08-19T03:08:29;94556.03;;;18.99;72.77
21011;BME280;10663;42.714;23.274;2022-08-19T03:10:00;94553.81;;;19.01;73.16
21011;BME280;10663;42.714;23.274;2022-08-19T03:11:32;94549.25;;;19.01;73.04
21011;BME280;10663;42.714;23.274;2022-08-19T03:13:03;94553.34;;;18.99;73.06
21011;BME280;10663;42.714;23.274;2022-08-19T03:14:34;94553.66;;;18.97;73.33
21011;BME280;10663;42.714;23.274;2022-08-19T03:16:05;94552.88;;;18.97;73.20
21011;BME280;10663;42.714;23.274;2022-08-19T03:17:36;94558.09;;;19.02;73.31
21011;BME280;10663;42.714;23.274;2022-08-19T03:19:07;94553.03;;;19.00;73.22
21011;BME280;10663;42.714;23.274;2022-08-19T03:20:47;94555.56;;;18.97;72.98
21011;BME280;10663;42.714;23.274;2022-08-19T03:22:18;94554.63;;;18.93;73.25
21011;BME280;10663;42.714;23.274;2022-08-19T03:23:50;94553.50;;;18.94;73.39
21011;BME280;10663;42.714;23.274;2022-08-19T03:25:20;94560.94;;;18.88;72.48
21011;BME280;10663;42.714;23.274;2022-08-19T03:26:53;94556.88;;;18.82;72.57
21011;BME280;10663;42.714;23.274;2022-08-19T03:28:28;94564.13;;;18.82;73.59
21011;BME280;10663;42.714;23.274;2022-08-19T03:29:59;94560.97;;;18.80;73.07
21011;BME280;10663;42.714;23.274;2022-08-19T03:31:30;94565.53;;;18.79;72.78
21011;BME280;10663;42.714;23.274;2022-08-19T03:33:01;94565.38;;;18.76;72.98
21011;BME280;10663;42.714;23.274;2022-08-19T03:34:34;94569.50;;;18.73;72.83
21011;BME280;10663;42.714;23.274;2022-08-19T03:36:06;94569.22;;;18.66;72.05
21011;BME280;10663;42.714;23.274;2022-08-19T03:37:39;94570.13;;;18.70;72.55
21011;BME280;10663;42.714;23.274;2022-08-19T03:39:10;94570.44;;;18.77;72.21
21011;BME280;10663;42.714;23.274;2022-08-19T03:40:41;94562.88;;;18.79;72.14
21011;BME280;10663;42.714;23.274;2022-08-19T03:42:13;94567.59;;;18.82;71.82
21011;BME280;10663;42.714;23.274;2022-08-19T03:43:45;94579.13;;;18.83;72.15
21011;BME280;10663;42.714;23.274;2022-08-19T03:45:19;94574.38;;;18.80;71.90
21011;BME280;10663;42.714;23.274;2022-08-19T03:46:53;94577.53;;;18.82;71.75
21011;BME280;10663;42.714;23.274;2022-08-19T03:48:25;94579.13;;;18.83;71.70
21011;BME280;10663;42.714;23.274;2022-08-19T03:49:56;94584.50;;;18.83;71.63
21011;BME280;10663;42.714;23.274;2022-08-19T03:51:30;94588.88;;;18.96;71.83
21011;BME280;10663;42.714;23.274;2022-08-19T03:53:01;94580.19;;;18.99;71.58
21011;BME280;10663;42.714;23.274;2022-08-19T03:54:32;94583.34;;;19.01;70.92
21011;BME280;10663;42.714;23.274;2022-08-19T03:56:03;94579.56;;;19.02;71.51
21011;BME280;10663;42.714;23.274;2022-08-19T03:57:34;94587.59;;;19.02;70.64
21011;BME280;10663;42.714;23.274;2022-08-19T03:59:10;94583.78;;;19.03;70.77
21011;BME280;10663;42.714;23.274;2022-08-19T04:00:42;94580.94;;;19.08;71.47
21011;BME280;10663;42.714;23.274;2022-08-19T04:02:13;94593.88;;;19.06;70.86
21011;BME280;10663;42.714;23.274;2022-08-19T04:03:45;94582.22;;;19.11;71.03
21011;BME280;10663;42.714;23.274;2022-08-19T04:05:16;94595.28;;;19.12;70.97
21011;BME280;10663;42.714;23.274;2022-08-19T04:06:48;94585.97;;;19.18;70.74
21011;BME280;10663;42.714;23.274;2022-08-19T04:08:19;94596.56;;;19.06;71.27
21011;BME280;10663;42.714;23.274;2022-08-19T04:09:50;94598.31;;;19.11;70.96
21011;BME280;10663;42.714;23.274;2022-08-19T04:11:25;94590.56;;;19.09;71.05
21011;BME280;10663;42.714;23.274;2022-08-19T04:12:56;94591.19;;;19.15;70.99
21011;BME280;10663;42.714;23.274;2022-08-19T04:14:29;94586.91;;;19.14;71.47
21011;BME280;10663;42.714;23.274;2022-08-19T04:16:05;94596.41;;;19.11;71.63
21011;BME280;10663;42.714;23.274;2022-08-19T04:17:35;94590.38;;;19.23;71.31
21011;BME280;10663;42.714;23.274;2022-08-19T04:19:06;94595.59;;;19.19;71.48
21011;BME280;10663;42.714;23.274;2022-08-19T04:20:45;94602.53;;;19.29;72.55
21011;BME280;10663;42.714;23.274;2022-08-19T04:22:17;94605.97;;;19.38;72.05
21011;BME280;10663;42.714;23.274;2022-08-19T04:23:49;94601.22;;;19.35;71.72
21011;BME280;10663;42.714;23.274;2022-08-19T04:25:20;94598.53;;;19.35;72.15
21011;BME280;10663;42.714;23.274;2022-08-19T04:26:51;94603.47;;;19.24;69.98
21011;BME280;10663;42.714;23.274;2022-08-19T04:28:22;94604.53;;;19.32;71.21
21011;BME280;10663;42.714;23.274;2022-08-19T04:29:53;94597.25;;;19.50;69.65
21011;BME280;10663;42.714;23.274;2022-08-19T04:31:28;94602.59;;;19.50;69.70
21011;BME280;10663;42.714;23.274;2022-08-19T04:32:59;94599.41;;;19.65;70.55
21011;BME280;10663;42.714;23.274;2022-08-19T04:34:30;94598.25;;;19.74;70.40
21011;BME280;10663;42.714;23.274;2022-08-19T04:36:00;94595.59;;;19.66;70.08
21011;BME280;10663;42.714;23.274;2022-08-19T04:37:31;94604.34;;;19.84;70.64
21011;BME280;10663;42.714;23.274;2022-08-19T04:39:10;94595.91;;;19.94;71.09
21011;BME280;10663;42.714;23.274;2022-08-19T04:40:43;94607.31;;;19.91;69.51
21011;BME280;10663;42.714;23.274;2022-08-19T04:42:33;94601.94;;;19.91;68.88
21011;BME280;10663;42.714;23.274;2022-08-19T04:44:10;94605.94;;;19.76;67.46
21011;BME280;10663;42.714;23.274;2022-08-19T04:45:45;94606.19;;;19.62;67.61
21011;BME280;10663;42.714;23.274;2022-08-19T04:47:16;94602.69;;;19.70;68.62
21011;BME280;10663;42.714;23.274;2022-08-19T04:48:47;94604.75;;;19.94;67.96
21011;BME280;10663;42.714;23.274;2022-08-19T04:50:17;94604.06;;;20.06;67.38
21011;BME280;10663;42.714;23.274;2022-08-19T04:51:51;94600.19;;;20.15;67.76
21011;BME280;10663;42.714;23.274;2022-08-19T04:53:29;94598.44;;;20.20;67.67
21011;BME280;10663;42.714;23.274;2022-08-19T04:55:00;94598.69;;;20.27;66.87
21011;BME280;10663;42.714;23.274;2022-08-19T04:56:31;94599.59;;;20.39;66.40
21011;BME280;10663;42.714;23.274;2022-08-19T04:58:02;94603.81;;;20.40;66.27
21011;BME280;10663;42.714;23.274;2022-08-19T04:59:34;94597.94;;;20.47;66.48
21011;BME280;10663;42.714;23.274;2022-08-19T05:01:05;94601.06;;;20.49;66.00
21011;BME280;10663;42.714;23.274;2022-08-19T05:02:36;94605.16;;;20.55;65.67
21011;BME280;10663;42.714;23.274;2022-08-19T05:04:07;94605.88;;;20.64;65.95
21011;BME280;10663;42.714;23.274;2022-08-19T05:05:42;94606.13;;;20.50;65.63
21011;BME280;10663;42.714;23.274;2022-08-19T05:07:13;94603.09;;;20.52;65.35
21011;BME280;10663;42.714;23.274;2022-08-19T05:08:44;94611.91;;;20.61;64.80
21011;BME280;10663;42.714;23.274;2022-08-19T05:10:15;94610.00;;;20.62;64.88
21011;BME280;10663;42.714;23.274;2022-08-19T05:11:49;94605.13;;;20.76;65.33
21011;BME280;10663;42.714;23.274;2022-08-19T05:13:23;94614.75;;;20.77;64.86
21011;BME280;10663;42.714;23.274;2022-08-19T05:14:56;94603.19;;;20.64;65.39
21011;BME280;10663;42.714;23.274;2022-08-19T05:16:27;94606.13;;;20.71;64.82
21011;BME280;10663;42.714;23.274;2022-08-19T05:17:58;94606.75;;;20.89;64.91
21011;BME280;10663;42.714;23.274;2022-08-19T05:19:48;94609.91;;;21.03;64.48
21011;BME280;10663;42.714;23.274;2022-08-19T05:21:40;94612.28;;;21.05;62.68
21011;BME280;10663;42.714;23.274;2022-08-19T05:23:29;94609.66;;;20.96;64.03
21011;BME280;10663;42.714;23.274;2022-08-19T05:25:07;94619.00;;;20.99;63.83
21011;BME280;10663;42.714;23.274;2022-08-19T05:26:41;94615.56;;;21.10;63.07
21011;BME280;10663;42.714;23.274;2022-08-19T05:28:13;94617.22;;;21.03;63.80
21011;BME280;10663;42.714;23.274;2022-08-19T05:29:44;94613.25;;;20.88;63.94
21011;BME280;10663;42.714;23.274;2022-08-19T05:31:15;94612.81;;;20.98;63.58
21011;BME280;10663;42.714;23.274;2022-08-19T05:32:45;94614.63;;;21.06;64.56
21011;BME280;10663;42.714;23.274;2022-08-19T05:34:18;94607.03;;;21.08;64.41
21011;BME280;10663;42.714;23.274;2022-08-19T05:35:52;94612.97;;;21.02;64.01
21011;BME280;10663;42.714;23.274;2022-08-19T05:37:23;94614.56;;;21.15;63.88
21011;BME280;10663;42.714;23.274;2022-08-19T05:38:54;94613.59;;;21.19;63.16
21011;BME280;10663;42.714;23.274;2022-08-19T05:40:25;94613.28;;;21.33;63.89
21011;BME280;10663;42.714;23.274;2022-08-19T05:41:59;94613.28;;;21.33;63.11
21011;BME280;10663;42.714;23.274;2022-08-19T05:43:30;94609.88;;;21.24;63.16
21011;BME280;10663;42.714;23.274;2022-08-19T05:45:02;94604.56;;;21.48;62.14
21011;BME280;10663;42.714;23.274;2022-08-19T05:46:33;94616.56;;;21.39;62.67
21011;BME280;10663;42.714;23.274;2022-08-19T05:48:09;94609.78;;;21.33;62.62
21011;BME280;10663;42.714;23.274;2022-08-19T05:49:42;94609.50;;;21.46;63.18
21011;BME280;10663;42.714;23.274;2022-08-19T05:51:13;94608.63;;;21.67;62.27
21011;BME280;10663;42.714;23.274;2022-08-19T05:52:43;94608.84;;;21.74;62.69
21011;BME280;10663;42.714;23.274;2022-08-19T05:54:15;94607.28;;;21.85;62.23
21011;BME280;10663;42.714;23.274;2022-08-19T05:55:46;94614.56;;;21.72;62.31
21011;BME280;10663;42.714;23.274;2022-08-19T05:57:20;94614.34;;;21.65;62.31
21011;BME280;10663;42.714;23.274;2022-08-19T05:58:51;94609.59;;;21.62;62.56
21011;BME280;10663;42.714;23.274;2022-08-19T06:00:24;94610.72;;;21.85;61.54
21011;BME280;10663;42.714;23.274;2022-08-19T06:01:55;94608.38;;;21.84;61.93
21011;BME280;10663;42.714;23.274;2022-08-19T06:03:27;94621.88;;;21.84;61.69
21011;BME280;10663;42.714;23.274;2022-08-19T06:04:58;94620.53;;;22.02;61.45
21011;BME280;10663;42.714;23.274;2022-08-19T06:06:29;94623.19;;;22.26;60.33
21011;BME280;10663;42.714;23.274;2022-08-19T06:08:00;94616.56;;;22.36;58.95
21011;BME280;10663;42.714;23.274;2022-08-19T06:09:30;94618.13;;;22.37;60.15
21011;BME280;10663;42.714;23.274;2022-08-19T06:11:21;94609.66;;;22.51;59.35
21011;BME280;10663;42.714;23.274;2022-08-19T06:12:53;94621.94;;;22.48;59.88
21011;BME280;10663;42.714;23.274;2022-08-19T06:14:27;94611.69;;;22.42;58.62
21011;BME280;10663;42.714;23.274;2022-08-19T06:15:58;94618.22;;;22.40;58.41
21011;BME280;10663;42.714;23.274;2022-08-19T06:17:29;94621.16;;;22.35;57.87
21011;BME280;10663;42.714;23.274;2022-08-19T06:19:03;94614.84;;;22.44;58.63
21011;BME280;10663;42.714;23.274;2022-08-19T06:20:36;94622.81;;;22.52;58.04
21011;BME280;10663;42.714;23.274;2022-08-19T06:22:07;94621.47;;;22.46;58.29
21011;BME280;10663;42.714;23.274;2022-08-19T06:23:39;94613.63;;;22.69;57.65
21011;BME280;10663;42.714;23.274;2022-08-19T06:25:11;94617.59;;;22.59;57.81
21011;BME280;10663;42.714;23.274;2022-08-19T06:26:44;94621.28;;;22.79;57.53
21011;BME280;10663;42.714;23.274;2022-08-19T06:28:15;94617.31;;;22.89;56.41
21011;BME280;10663;42.714;23.274;2022-08-19T06:29:45;94616.34;;;22.81;56.25
21011;BME280;10663;42.714;23.274;2022-08-19T06:31:20;94617.47;;;22.80;56.79
21011;BME280;10663;42.714;23.274;2022-08-19T06:32:51;94620.66;;;23.13;56.08
21011;BME280;10663;42.714;23.274;2022-08-19T06:34:22;94617.09;;;23.09;56.05
21011;BME280;10663;42.714;23.274;2022-08-19T06:35:53;94621.28;;;23.07;56.77
21011;BME280;10663;42.714;23.274;2022-08-19T06:37:24;94615.91;;;23.23;56.27
21011;BME280;10663;42.714;23.274;2022-08-19T06:38:56;94616.84;;;23.14;56.45
21011;BME280;10663;42.714;23.274;2022-08-19T06:40:29;94619.47;;;23.11;56.55
21011;BME280;10663;42.714;23.274;2022-08-19T06:42:02;94614.88;;;23.43;55.66
21011;BME280;10663;42.714;23.274;2022-08-19T06:43:34;94615.28;;;23.57;55.13
21011;BME280;10663;42.714;23.274;2022-08-19T06:45:06;94608.03;;;23.93;53.90
21011;BME280;10663;42.714;23.274;2022-08-19T06:46:40;94611.94;;;23.95;54.57
21011;BME280;10663;42.714;23.274;2022-08-19T06:48:11;94615.59;;;24.03;53.93
21011;BME280;10663;42.714;23.274;2022-08-19T06:49:42;94610.41;;;24.13;53.58
21011;BME280;10663;42.714;23.274;2022-08-19T06:51:15;94615.91;;;24.33;53.60
21011;BME280;10663;42.714;23.274;2022-08-19T06:52:49;94613.41;;;24.08;54.09
21011;BME280;10663;42.714;23.274;2022-08-19T06:54:19;94603.22;;;23.86;54.29
21011;BME280;10663;42.714;23.274;2022-08-19T06:55:51;94616.66;;;23.98;54.24
21011;BME280;10663;42.714;23.274;2022-08-19T06:57:31;94613.28;;;24.36;52.92
21011;BME280;10663;42.714;23.274;2022-08-19T06:59:06;94618.56;;;23.98;53.83
21011;BME280;10663;42.714;23.274;2022-08-19T07:00:37;94613.84;;;23.95;53.72
21011;BME280;10663;42.714;23.274;2022-08-19T07:02:08;94612.13;;;23.71;54.12
21011;BME280;10663;42.714;23.274;2022-08-19T07:03:39;94612.06;;;23.83;54.12
21011;BME280;10663;42.714;23.274;2022-08-19T07:05:10;94620.75;;;23.92;53.05
21011;BME280;10663;42.714;23.274;2022-08-19T07:06:41;94621.28;;;23.98;52.51
21011;BME280;10663;42.714;23.274;2022-08-19T07:08:13;94624.03;;;24.33;52.67
21011;BME280;10663;42.714;23.274;2022-08-19T07:09:44;94621.25;;;24.29;53.09
21011;BME280;10663;42.714;23.274;2022-08-19T07:11:17;94622.84;;;24.69;51.92
21011;BME280;10663;42.714;23.274;2022-08-19T07:12:49;94622.47;;;24.67;51.52
21011;BME280;10663;42.714;23.274;2022-08-19T07:14:26;94622.72;;;24.81;51.18
21011;BME280;10663;42.714;23.274;2022-08-19T07:15:57;94616.66;;;24.68;51.39
21011;BME280;10663;42.714;23.274;2022-08-19T07:17:28;94619.88;;;24.74;50.90
21011;BME280;10663;42.714;23.274;2022-08-19T07:18:59;94619.94;;;24.77;50.99
21011;BME280;10663;42.714;23.274;2022-08-19T07:20:30;94618.47;;;24.99;51.25
21011;BME280;10663;42.714;23.274;2022-08-19T07:22:02;94618.38;;;25.15;50.97
21011;BME280;10663;42.714;23.274;2022-08-19T07:23:33;94617.19;;;25.12;50.92
21011;BME280;10663;42.714;23.274;2022-08-19T07:25:07;94616.75;;;25.29;50.82
21011;BME280;10663;42.714;23.274;2022-08-19T07:26:41;94623.97;;;25.22;51.22
21011;BME280;10663;42.714;23.274;2022-08-19T07:28:12;94612.25;;;25.18;50.29
21011;BME280;10663;42.714;23.274;2022-08-19T07:29:43;94614.50;;;25.35;50.32
21011;BME280;10663;42.714;23.274;2022-08-19T07:31:18;94610.53;;;25.29;49.72
21011;BME280;10663;42.714;23.274;2022-08-19T07:32:50;94615.31;;;25.81;49.07
21011;BME280;10663;42.714;23.274;2022-08-19T07:34:23;94607.50;;;25.76;48.90
21011;BME280;10663;42.714;23.274;2022-08-19T07:35:54;94612.28;;;25.86;48.72
21011;BME280;10663;42.714;23.274;2022-08-19T07:37:25;94610.09;;;25.95;48.11
21011;BME280;10663;42.714;23.274;2022-08-19T07:39:02;94606.78;;;26.05;47.72
21011;BME280;10663;42.714;23.274;2022-08-19T07:40:33;94606.19;;;26.42;47.21
21011;BME280;10663;42.714;23.274;2022-08-19T07:42:08;94600.97;;;26.30;47.16
21011;BME280;10663;42.714;23.274;2022-08-19T07:43:41;94605.38;;;26.41;46.84
21011;BME280;10663;42.714;23.274;2022-08-19T07:45:13;94601.16;;;26.18;46.87
21011;BME280;10663;42.714;23.274;2022-08-19T07:46:49;94604.44;;;26.04;46.79
21011;BME280;10663;42.714;23.274;2022-08-19T07:48:27;94608.41;;;26.10;46.79
21011;BME280;10663;42.714;23.274;2022-08-19T07:49:58;94604.19;;;26.13;46.59
21011;BME280;10663;42.714;23.274;2022-08-19T07:51:29;94602.59;;;26.34;45.56
21011;BME280;10663;42.714;23.274;2022-08-19T07:53:00;94607.03;;;26.50;44.51
21011;BME280;10663;42.714;23.274;2022-08-19T07:54:33;94601.59;;;26.46;44.72
21011;BME280;10663;42.714;23.274;2022-08-19T07:56:05;94604.03;;;26.55;44.72
21011;BME280;10663;42.714;23.274;2022-08-19T07:57:37;94595.44;;;26.49;45.04
21011;BME280;10663;42.714;23.274;2022-08-19T07:59:09;94611.38;;;26.84;44.59
21011;BME280;10663;42.714;23.274;2022-08-19T08:00:40;94613.47;;;27.28;43.75
21011;BME280;10663;42.714;23.274;2022-08-19T08:02:12;94604.66;;;27.41;42.97
21011;BME280;10663;42.714;23.274;2022-08-19T08:03:43;94599.22;;;27.41;43.29
21011;BME280;10663;42.714;23.274;2022-08-19T08:05:34;94611.53;;;27.28;43.36